Time;durP1;ratioP1;P1;durP2;ratioP2;P2;SDS_P1;SDS_P2;PMS_P1;PMS_P2;Temp;Humidity;BMP_temperature;BMP_pressure;BME280_temperature;BME280_humidity;BME280_pressure;Samples;Min_cycle;Max_cycle;Signal;HPM_P1;HPM_P2
2021/09/28 00:01:08;;;;;;;4.35;0.85;;;17.10;99.90;;;;;;1883392;74;21508;-74
2021/09/28 00:03:34;;;;;;;1.70;0.72;;;17.00;99.90;;;;;;1882644;74;21186;-75
2021/09/28 00:06:00;;;;;;;1.52;0.60;;;17.00;99.90;;;;;;1883729;74;21084;-75
2021/09/28 00:08:26;;;;;;;0.72;0.70;;;16.90;99.90;;;;;;1883988;74;21080;-75
2021/09/28 00:10:53;;;;;;;1.77;0.70;;;16.90;99.90;;;;;;1882387;74;21147;-75
2021/09/28 00:13:19;;;;;;;1.20;0.88;;;16.80;99.90;;;;;;1882597;74;21123;-75
2021/09/28 00:15:46;;;;;;;2.65;0.50;;;16.80;99.90;;;;;;1883920;74;21145;-75
2021/09/28 00:18:12;;;;;;;0.37;0.37;;;16.70;99.90;;;;;;1882781;74;21049;-75
2021/09/28 00:20:39;;;;;;;1.07;0.50;;;16.60;99.90;;;;;;1883572;74;21224;-75
2021/09/28 00:23:05;;;;;;;1.10;0.57;;;16.60;99.90;;;;;;1882769;74;21165;-76
2021/09/28 00:25:31;;;;;;;0.75;0.40;;;16.40;99.90;;;;;;1883241;74;21154;-75
2021/09/28 00:27:58;;;;;;;2.58;0.30;;;16.30;99.90;;;;;;1883221;74;21167;-75
2021/09/28 00:30:24;;;;;;;0.40;0.40;;;16.10;99.90;;;;;;1883169;74;21162;-75
2021/09/28 00:32:50;;;;;;;0.28;0.28;;;16.00;99.90;;;;;;1882670;74;21516;-75
2021/09/28 00:35:16;;;;;;;0.65;0.40;;;15.90;99.90;;;;;;1883114;74;21500;-75
2021/09/28 00:37:42;;;;;;;1.22;0.60;;;15.70;99.90;;;;;;1883609;74;21513;-75
2021/09/28 00:40:08;;;;;;;1.90;0.42;;;15.60;99.90;;;;;;1882841;74;22564;-75
2021/09/28 00:42:36;;;;;;;0.68;0.50;;;15.50;99.90;;;;;;1883645;74;21512;-75
2021/09/28 00:45:02;;;;;;;1.37;0.33;;;15.40;99.90;;;;;;1882824;74;21153;-75
2021/09/28 00:47:28;;;;;;;1.05;0.60;;;15.30;99.90;;;;;;1882099;74;21097;-75
2021/09/28 00:49:54;;;;;;;0.60;0.50;;;15.20;99.90;;;;;;1882407;74;21078;-75
2021/09/28 00:52:20;;;;;;;2.52;0.57;;;15.20;99.90;;;;;;1883413;74;21079;-75
2021/09/28 00:54:47;;;;;;;0.42;0.42;;;15.10;99.90;;;;;;1883326;74;21076;-75
2021/09/28 00:57:13;;;;;;;1.75;0.47;;;15.00;99.90;;;;;;1883045;74;21076;-75
2021/09/28 00:59:39;;;;;;;0.90;0.50;;;14.90;99.90;;;;;;1883619;74;21103;-75
2021/09/28 01:02:05;;;;;;;2.37;0.60;;;14.80;99.90;;;;;;1883073;74;21078;-75
2021/09/28 01:04:31;;;;;;;1.95;0.60;;;14.70;99.90;;;;;;1883670;74;21084;-75
2021/09/28 01:06:57;;;;;;;1.85;0.53;;;14.60;99.90;;;;;;1883149;74;21084;-75
2021/09/28 01:09:23;;;;;;;2.25;0.60;;;14.60;99.90;;;;;;1883379;74;21092;-75
2021/09/28 01:11:49;;;;;;;3.22;0.98;;;14.40;99.90;;;;;;1883199;74;21139;-75
2021/09/28 01:14:16;;;;;;;2.47;0.60;;;14.40;99.90;;;;;;1884643;74;21092;-75
2021/09/28 01:16:42;;;;;;;2.17;0.70;;;14.30;99.90;;;;;;1883742;74;21088;-75
2021/09/28 01:19:08;;;;;;;3.98;0.62;;;14.20;99.90;;;;;;1882817;74;21048;-75
2021/09/28 01:21:34;;;;;;;3.00;0.72;;;14.10;99.90;;;;;;1883288;74;21484;-75
2021/09/28 01:24:00;;;;;;;3.00;1.10;;;13.90;99.90;;;;;;1882584;74;21750;-75
2021/09/28 01:26:26;;;;;;;3.92;0.90;;;13.90;99.90;;;;;;1883322;74;21550;-75
2021/09/28 01:28:53;;;;;;;2.33;1.10;;;13.90;99.90;;;;;;1883218;74;21146;-75
2021/09/28 01:31:19;;;;;;;6.15;1.02;;;13.90;99.90;;;;;;1882145;74;21049;-75
2021/09/28 01:33:45;;;;;;;6.83;0.90;;;13.90;99.90;;;;;;1883813;74;21200;-75
2021/09/28 01:36:11;;;;;;;2.52;0.88;;;13.90;99.90;;;;;;1882741;74;21225;-75
2021/09/28 01:38:37;;;;;;;2.92;0.98;;;13.90;99.90;;;;;;1884276;74;21076;-74
2021/09/28 01:41:03;;;;;;;2.08;0.80;;;13.80;99.90;;;;;;1883156;74;21057;-74
2021/09/28 01:43:29;;;;;;;3.52;0.70;;;13.80;99.90;;;;;;1882268;74;21150;-75
2021/09/28 01:45:56;;;;;;;2.98;0.80;;;13.80;99.90;;;;;;1882634;74;21146;-75
2021/09/28 01:48:22;;;;;;;5.55;0.80;;;13.80;99.90;;;;;;1883259;74;21575;-75
2021/09/28 01:50:48;;;;;;;1.95;0.78;;;13.90;99.90;;;;;;1883083;74;21587;-75
2021/09/28 01:53:14;;;;;;;1.40;0.75;;;13.90;99.90;;;;;;1883546;74;21495;-75
2021/09/28 01:55:40;;;;;;;7.62;0.98;;;13.80;99.90;;;;;;1882792;74;21484;-75
2021/09/28 01:58:06;;;;;;;6.30;1.02;;;13.90;99.90;;;;;;1883592;74;21076;-75
2021/09/28 02:00:32;;;;;;;14.38;1.42;;;13.80;99.90;;;;;;1883807;74;21158;-75
2021/09/28 02:03:00;;;;;;;1.77;0.93;;;13.80;99.90;;;;;;1882591;74;21072;-75
2021/09/28 02:05:26;;;;;;;6.12;1.40;;;13.80;99.90;;;;;;1882272;74;21096;-75
2021/09/28 02:07:52;;;;;;;4.35;1.20;;;13.80;99.90;;;;;;1884239;74;21084;-75
2021/09/28 02:10:18;;;;;;;3.77;0.90;;;13.90;99.90;;;;;;1884193;74;21500;-75
2021/09/28 02:12:44;;;;;;;3.95;1.20;;;13.80;99.90;;;;;;1883080;74;21481;-75
2021/09/28 02:15:10;;;;;;;3.12;1.10;;;13.80;99.90;;;;;;1883202;74;21578;-75
2021/09/28 02:17:37;;;;;;;7.65;1.45;;;13.80;99.90;;;;;;1883726;74;21492;-75
2021/09/28 02:20:03;;;;;;;2.80;0.98;;;13.70;99.90;;;;;;1882732;74;21756;-75
2021/09/28 02:22:29;;;;;;;4.10;0.95;;;13.70;99.90;;;;;;1883323;74;21166;-75
2021/09/28 02:24:55;;;;;;;2.47;0.93;;;13.70;99.90;;;;;;1883110;74;21121;-74
2021/09/28 02:27:21;;;;;;;2.35;0.88;;;13.60;99.90;;;;;;1882303;74;21076;-75
2021/09/28 02:29:47;;;;;;;1.98;0.70;;;13.60;99.90;;;;;;1882042;74;21125;-74
2021/09/28 02:32:13;;;;;;;4.58;1.20;;;13.60;99.90;;;;;;1882735;74;21151;-75
2021/09/28 02:34:39;;;;;;;1.65;0.80;;;13.60;99.90;;;;;;1883125;74;21084;-75
2021/09/28 02:37:08;;;;;;;2.02;0.70;;;13.60;99.90;;;;;;1882128;74;21080;-75
2021/09/28 02:39:35;;;;;;;4.90;1.15;;;13.50;99.90;;;;;;1882074;74;21529;-75
2021/09/28 02:42:01;;;;;;;2.90;0.85;;;13.50;99.90;;;;;;1882734;74;21080;-75
2021/09/28 02:44:27;;;;;;;1.85;0.88;;;13.60;99.90;;;;;;1883692;74;21146;-74
2021/09/28 02:46:54;;;;;;;2.58;0.80;;;13.50;99.90;;;;;;1882147;74;21154;-75
2021/09/28 02:49:20;;;;;;;2.58;0.88;;;13.50;99.90;;;;;;1885575;74;21181;-75
2021/09/28 02:51:46;;;;;;;1.95;0.57;;;13.50;99.90;;;;;;1884587;74;21129;-75
2021/09/28 02:54:12;;;;;;;5.10;0.70;;;13.50;99.90;;;;;;1882649;74;21153;-75
2021/09/28 02:56:38;;;;;;;2.75;0.78;;;13.50;99.90;;;;;;1883409;74;21488;-75
2021/09/28 02:59:04;;;;;;;2.02;0.72;;;13.50;99.90;;;;;;1882645;74;21512;-75
2021/09/28 03:01:30;;;;;;;3.58;0.85;;;13.40;99.90;;;;;;1883156;74;21533;-74
2021/09/28 03:03:56;;;;;;;2.33;0.80;;;13.50;99.90;;;;;;1883451;74;21495;-75
2021/09/28 03:06:22;;;;;;;4.87;0.80;;;13.40;99.90;;;;;;1882660;74;21519;-75
2021/09/28 03:08:49;;;;;;;1.25;0.57;;;13.40;99.90;;;;;;1883464;74;21088;-75
2021/09/28 03:11:15;;;;;;;2.37;0.85;;;13.40;99.90;;;;;;1883463;74;21084;-74
2021/09/28 03:13:41;;;;;;;2.83;0.90;;;13.40;99.90;;;;;;1883347;74;21170;-75
2021/09/28 03:16:07;;;;;;;2.52;0.90;;;13.40;99.90;;;;;;1883947;74;21076;-74
2021/09/28 03:18:33;;;;;;;15.03;1.07;;;13.40;99.90;;;;;;1883929;74;21084;-75
2021/09/28 03:20:59;;;;;;;4.90;1.20;;;13.40;99.90;;;;;;1882218;74;21068;-75
2021/09/28 03:23:25;;;;;;;2.42;0.88;;;13.30;99.90;;;;;;1883217;74;21080;-75
2021/09/28 03:25:52;;;;;;;2.02;0.70;;;13.30;99.90;;;;;;1883168;75;21186;-75
2021/09/28 03:28:18;;;;;;;1.77;0.90;;;13.20;99.90;;;;;;1882229;74;21061;-75
2021/09/28 03:30:44;;;;;;;3.50;1.00;;;13.20;99.90;;;;;;1883748;74;21068;-74
2021/09/28 03:33:10;;;;;;;4.55;1.27;;;13.10;99.90;;;;;;1883774;74;21157;-75
2021/09/28 03:35:36;;;;;;;4.37;1.12;;;13.10;99.90;;;;;;1883751;74;21076;-74
2021/09/28 03:38:02;;;;;;;4.40;1.12;;;13.10;99.90;;;;;;1883264;74;21123;-75
2021/09/28 03:40:30;;;;;;;1.72;0.70;;;13.10;99.90;;;;;;1883351;74;21147;-74
2021/09/28 03:42:56;;;;;;;3.72;1.00;;;13.00;99.90;;;;;;1883261;74;21072;-74
2021/09/28 03:45:22;;;;;;;1.45;0.90;;;13.00;99.90;;;;;;1882480;74;21084;-74
2021/09/28 03:47:48;;;;;;;2.42;0.88;;;12.90;99.90;;;;;;1884238;74;21076;-75
2021/09/28 03:50:14;;;;;;;13.68;1.12;;;12.90;99.90;;;;;;1882286;74;21061;-75
2021/09/28 03:52:40;;;;;;;1.82;0.78;;;12.90;99.90;;;;;;1882692;74;21084;-74
2021/09/28 03:55:06;;;;;;;8.88;1.02;;;12.90;99.90;;;;;;1883630;74;21162;-74
2021/09/28 03:57:33;;;;;;;3.98;0.98;;;12.90;99.90;;;;;;1882244;74;21088;-74
2021/09/28 04:00:01;;;;;;;2.45;1.10;;;12.80;99.90;;;;;;1880339;74;21109;-74
2021/09/28 04:02:27;;;;;;;1.85;0.98;;;12.80;99.90;;;;;;1882096;74;21109;-74
2021/09/28 04:04:53;;;;;;;4.42;1.20;;;12.80;99.90;;;;;;1882856;74;21150;-75
2021/09/28 04:07:19;;;;;;;3.67;1.00;;;12.80;99.90;;;;;;1882382;74;21142;-75
2021/09/28 04:09:45;;;;;;;4.58;1.35;;;12.80;99.90;;;;;;1883179;74;21061;-75
2021/09/28 04:12:11;;;;;;;3.72;1.62;;;12.80;99.90;;;;;;1882915;74;21123;-75
2021/09/28 04:14:37;;;;;;;0.82;0.60;;;12.70;99.90;;;;;;1882321;74;21146;-75
2021/09/28 04:17:03;;;;;;;2.62;1.20;;;12.60;99.90;;;;;;1882723;74;21206;-74
2021/09/28 04:19:29;;;;;;;2.02;0.62;;;12.70;99.90;;;;;;1883619;74;21052;-75
2021/09/28 04:21:55;;;;;;;1.45;0.78;;;12.50;99.90;;;;;;1884456;74;21142;-75
2021/09/28 04:24:22;;;;;;;3.87;0.95;;;12.50;99.90;;;;;;1883581;74;21084;-75
2021/09/28 04:26:48;;;;;;;4.78;1.20;;;12.50;99.90;;;;;;1882861;74;21084;-74
2021/09/28 04:29:14;;;;;;;1.00;0.72;;;12.50;99.90;;;;;;1886797;74;21086;-74
2021/09/28 04:31:40;;;;;;;2.80;1.02;;;12.40;99.90;;;;;;1886656;73;21361;-74
2021/09/28 04:34:06;;;;;;;2.15;0.95;;;12.40;99.90;;;;;;1885733;74;21425;-74
2021/09/28 04:36:32;;;;;;;3.12;1.10;;;12.40;99.90;;;;;;1886921;74;21400;-74
2021/09/28 04:39:04;;;;;;;3.50;1.22;;;12.30;99.90;;;;;;1884194;74;21490;-74
2021/09/28 04:41:31;;;;;;;2.27;1.57;;;12.20;99.90;;;;;;1883182;74;21475;-75
2021/09/28 04:43:57;;;;;;;3.90;1.42;;;12.20;99.90;;;;;;1884892;74;21578;-75
2021/09/28 04:46:24;;;;;;;3.25;1.32;;;12.00;99.90;;;;;;1883797;74;21512;-75
2021/09/28 04:48:50;;;;;;;1.87;1.72;;;12.10;99.90;;;;;;1882331;74;21131;-74
2021/09/28 04:51:16;;;;;;;2.90;1.70;;;12.10;99.90;;;;;;1881837;74;21179;-75
2021/09/28 04:53:42;;;;;;;3.85;1.72;;;12.10;99.90;;;;;;1883543;74;21154;-75
2021/09/28 04:56:10;;;;;;;7.03;1.50;;;12.10;99.90;;;;;;1882655;74;21080;-75
2021/09/28 04:58:37;;;;;;;3.70;1.80;;;12.00;99.90;;;;;;1883304;74;21145;-75
2021/09/28 05:01:03;;;;;;;6.37;1.30;;;12.10;99.90;;;;;;1882861;74;21080;-75
2021/09/28 05:03:29;;;;;;;2.12;1.12;;;12.00;99.90;;;;;;1882751;74;21088;-75
2021/09/28 05:05:55;;;;;;;5.10;1.25;;;12.10;99.90;;;;;;1883244;74;21076;-74
2021/09/28 05:08:21;;;;;;;4.53;1.12;;;12.10;99.90;;;;;;1886630;74;21088;-75
2021/09/28 05:10:47;;;;;;;1.95;1.02;;;12.10;99.90;;;;;;1884625;74;21077;-78
2021/09/28 05:13:13;;;;;;;3.17;0.98;;;12.20;99.90;;;;;;1882636;74;21562;-76
2021/09/28 05:15:40;;;;;;;2.75;1.42;;;12.20;99.90;;;;;;1883661;74;21085;-75
2021/09/28 05:18:06;;;;;;;3.05;1.10;;;12.20;99.90;;;;;;1883487;74;21142;-76
2021/09/28 05:20:32;;;;;;;4.28;1.30;;;12.20;99.90;;;;;;1883205;74;21154;-75
2021/09/28 05:22:58;;;;;;;2.62;1.10;;;12.20;99.90;;;;;;1883149;74;21468;-76
2021/09/28 05:25:26;;;;;;;5.05;1.35;;;12.20;99.90;;;;;;1883822;74;21492;-77
2021/09/28 05:27:52;;;;;;;3.83;1.40;;;12.20;99.90;;;;;;1883194;74;21092;-76
2021/09/28 05:30:18;;;;;;;2.47;1.35;;;12.20;99.90;;;;;;1883444;74;21080;-75
2021/09/28 05:32:44;;;;;;;3.42;1.30;;;12.20;99.90;;;;;;1882707;74;21080;-76
2021/09/28 05:35:10;;;;;;;3.85;1.50;;;12.30;99.90;;;;;;1883304;74;21201;-76
2021/09/28 05:37:36;;;;;;;3.37;1.65;;;12.30;99.90;;;;;;1883082;74;21060;-76
2021/09/28 05:40:02;;;;;;;2.17;1.37;;;12.20;99.90;;;;;;1883128;74;21154;-76
2021/09/28 05:42:29;;;;;;;3.10;1.05;;;12.30;99.90;;;;;;1882621;74;21150;-76
2021/09/28 05:44:55;;;;;;;1.40;1.07;;;12.30;99.90;;;;;;1883077;74;21080;-77
2021/09/28 05:47:21;;;;;;;4.47;1.20;;;12.40;99.90;;;;;;1883074;74;21084;-75
2021/09/28 05:49:47;;;;;;;4.45;1.35;;;12.50;99.90;;;;;;1882567;74;21092;-75
2021/09/28 05:52:14;;;;;;;3.58;1.55;;;12.50;99.90;;;;;;1883583;74;21185;-75
2021/09/28 05:54:47;;;;;;;6.47;1.62;;;12.40;99.90;;;;;;1882053;74;21092;-75
2021/09/28 05:57:11;;;;;;;1.40;1.30;;;12.30;99.90;;;;;;1882297;74;21119;-75
2021/09/28 05:59:36;;;;;;;4.03;1.57;;;12.40;99.90;;;;;;1882972;74;21085;-75
2021/09/28 06:02:02;;;;;;;6.85;1.80;;;12.40;99.90;;;;;;1883196;74;21212;-75
2021/09/28 06:04:28;;;;;;;9.45;1.50;;;12.50;99.90;;;;;;1882905;74;21084;-75
2021/09/28 06:06:54;;;;;;;3.33;1.30;;;12.50;99.90;;;;;;1883274;74;21146;-75
2021/09/28 06:09:20;;;;;;;7.75;1.90;;;12.40;99.90;;;;;;1883498;74;21207;-76
2021/09/28 06:11:47;;;;;;;6.30;1.37;;;12.50;99.90;;;;;;1883698;74;21076;-75
2021/09/28 06:14:13;;;;;;;10.65;2.17;;;12.60;99.90;;;;;;1882164;74;21150;-75
2021/09/28 06:19:26;;;;;;;6.15;1.62;;;12.60;99.90;;;;;;1893175;74;21559;-75
2021/09/28 06:21:53;;;;;;;5.40;1.77;;;12.70;99.90;;;;;;1884912;75;21254;-75
2021/09/28 06:24:19;;;;;;;9.25;2.02;;;12.70;99.90;;;;;;1899481;75;21079;-75
2021/09/28 06:26:45;;;;;;;4.65;2.10;;;12.70;99.90;;;;;;1896023;74;21042;-76
2021/09/28 06:29:11;;;;;;;6.28;1.87;;;12.90;99.90;;;;;;1898546;74;21066;-75
2021/09/28 06:31:37;;;;;;;4.20;1.67;;;13.00;99.90;;;;;;1897634;74;21136;-75
2021/09/28 06:34:04;;;;;;;5.60;1.65;;;13.10;99.90;;;;;;1891965;74;21140;-75
2021/09/28 06:36:42;;;;;;;5.90;1.40;;;13.20;99.90;;;;;;1885282;75;21066;-75
2021/09/28 06:39:08;;;;;;;2.12;1.40;;;13.30;99.90;;;;;;1910796;74;21495;-75
2021/09/28 06:41:37;;;;;;;5.87;1.60;;;13.30;99.90;;;;;;1898522;74;21462;-75
2021/09/28 06:44:05;;;;;;;7.90;1.77;;;13.60;99.90;;;;;;1889460;75;21153;-75
2021/09/28 06:46:31;;;;;;;4.70;1.50;;;13.80;99.90;;;;;;1885622;75;21152;-75
2021/09/28 06:48:58;;;;;;;7.33;2.00;;;14.00;99.90;;;;;;1884157;75;21066;-76
2021/09/28 06:51:24;;;;;;;4.45;1.77;;;14.00;99.90;;;;;;1895701;74;21043;-75
2021/09/28 06:53:50;;;;;;;5.60;1.90;;;14.00;99.90;;;;;;1907634;74;21075;-75
2021/09/28 06:56:18;;;;;;;5.80;1.82;;;14.10;99.90;;;;;;1902614;74;21072;-75
2021/09/28 06:58:44;;;;;;;2.75;1.37;;;14.20;99.90;;;;;;1894325;75;21074;-75
2021/09/28 07:01:12;;;;;;;3.87;1.90;;;14.20;99.90;;;;;;1890395;74;21120;-75
2021/09/28 07:03:38;;;;;;;4.92;1.92;;;14.30;99.90;;;;;;1897567;74;21091;-74
2021/09/28 07:06:04;;;;;;;5.47;1.62;;;14.20;99.90;;;;;;1893534;75;21062;-74
2021/09/28 07:08:30;;;;;;;3.50;2.10;;;14.20;99.90;;;;;;1894445;74;21199;-75
2021/09/28 07:10:57;;;;;;;7.97;2.00;;;14.20;99.90;;;;;;1886284;75;21136;-75
2021/09/28 07:13:23;;;;;;;4.75;1.87;;;14.20;99.90;;;;;;1892589;74;21186;-75
2021/09/28 07:15:49;;;;;;;4.67;2.20;;;14.10;99.90;;;;;;1891599;75;21131;-75
2021/09/28 07:18:15;;;;;;;6.30;2.58;;;14.10;99.90;;;;;;1885470;74;21501;-75
2021/09/28 07:20:41;;;;;;;7.87;2.42;;;14.00;99.90;;;;;;1886904;75;21462;-75
2021/09/28 07:23:07;;;;;;;6.33;2.33;;;14.20;99.90;;;;;;1895879;75;21615;-75
2021/09/28 07:25:34;;;;;;;6.28;2.80;;;14.30;99.90;;;;;;1900248;75;21478;-75
2021/09/28 07:28:00;;;;;;;8.60;2.58;;;14.40;99.90;;;;;;1888726;75;21616;-75
2021/09/28 07:30:26;;;;;;;4.67;2.72;;;14.40;99.90;;;;;;1883995;75;21147;-75
2021/09/28 07:32:52;;;;;;;6.65;2.75;;;14.30;99.90;;;;;;1887479;75;21076;-75
2021/09/28 07:35:18;;;;;;;4.95;2.52;;;14.30;99.90;;;;;;1894880;74;21068;-75
2021/09/28 07:37:45;;;;;;;7.03;2.75;;;14.30;99.90;;;;;;1891218;75;21074;-77
2021/09/28 07:40:11;;;;;;;7.60;2.92;;;14.40;99.90;;;;;;1894753;74;21456;-76
2021/09/28 07:42:37;;;;;;;5.37;2.70;;;14.40;99.90;;;;;;1886155;75;21627;-75
2021/09/28 07:45:03;;;;;;;6.10;2.72;;;14.30;99.90;;;;;;1892978;75;21543;-75
2021/09/28 07:47:30;;;;;;;14.68;2.87;;;14.50;99.90;;;;;;1899862;75;21055;-75
2021/09/28 07:49:56;;;;;;;6.62;2.80;;;14.60;99.90;;;;;;1888879;74;21039;-75
2021/09/28 07:52:22;;;;;;;7.08;2.85;;;14.60;99.90;;;;;;1885995;75;21082;-75
2021/09/28 07:54:48;;;;;;;4.75;2.37;;;14.90;99.90;;;;;;1899592;74;21077;-75
2021/09/28 07:57:14;;;;;;;5.87;2.90;;;14.90;99.90;;;;;;1896083;75;21462;-75
2021/09/28 07:59:40;;;;;;;4.08;2.37;;;15.10;99.90;;;;;;1898044;74;21516;-76
2021/09/28 08:02:07;;;;;;;9.68;3.00;;;15.50;99.90;;;;;;1888995;75;21496;-75
2021/09/28 08:04:34;;;;;;;9.75;2.40;;;15.60;99.90;;;;;;1890746;74;21505;-75
2021/09/28 08:07:00;;;;;;;7.47;2.52;;;15.80;99.90;;;;;;1890776;74;21078;-76
2021/09/28 08:09:26;;;;;;;4.40;2.25;;;16.00;99.90;;;;;;1902058;75;21047;-75
2021/09/28 08:11:52;;;;;;;4.22;2.62;;;15.80;99.90;;;;;;1886561;75;21124;-76
2021/09/28 08:14:19;;;;;;;7.78;2.52;;;15.50;99.90;;;;;;1887308;74;21161;-75
2021/09/28 08:16:45;;;;;;;6.53;2.40;;;15.50;99.90;;;;;;1888565;75;21070;-75
2021/09/28 08:19:11;;;;;;;11.33;2.90;;;15.50;99.90;;;;;;1884142;75;21039;-75
2021/09/28 08:21:37;;;;;;;9.13;2.45;;;15.30;99.90;;;;;;1904589;75;21090;-76
2021/09/28 08:24:03;;;;;;;7.00;3.17;;;15.30;99.90;;;;;;1894085;75;21197;-75
2021/09/28 08:29:09;;;;;;;5.72;2.70;;;15.30;99.90;;;;;;1899450;75;21048;-74
2021/09/28 08:31:35;;;;;;;12.98;3.00;;;15.20;99.90;;;;;;1889951;74;21478;-75
2021/09/28 08:34:03;;;;;;;4.83;2.40;;;15.30;99.90;;;;;;1893360;75;21615;-75
2021/09/28 08:36:29;;;;;;;4.05;2.22;;;15.40;99.90;;;;;;1895768;74;21179;-75
2021/09/28 08:38:55;;;;;;;5.15;2.40;;;15.40;99.90;;;;;;1898465;74;21153;-75
2021/09/28 08:41:21;;;;;;;4.25;2.40;;;15.30;99.90;;;;;;1891159;75;21042;-75
2021/09/28 08:43:47;;;;;;;5.55;2.40;;;15.30;99.90;;;;;;1887629;75;21035;-75
2021/09/28 08:46:14;;;;;;;7.25;2.60;;;15.30;99.90;;;;;;1883037;75;21117;-76
2021/09/28 08:48:40;;;;;;;4.45;2.15;;;15.60;99.90;;;;;;1891493;74;21148;-75
2021/09/28 08:51:06;;;;;;;12.43;2.98;;;15.60;99.90;;;;;;1889875;75;21072;-75
2021/09/28 08:53:32;;;;;;;5.20;2.55;;;15.60;99.90;;;;;;1904886;74;21136;-75
2021/09/28 08:55:58;;;;;;;4.87;2.08;;;16.00;99.90;;;;;;1889403;75;21059;-75
2021/09/28 08:58:24;;;;;;;4.87;2.00;;;16.70;99.90;;;;;;1894247;74;21137;-76
2021/09/28 09:00:50;;;;;;;5.50;2.33;;;17.00;99.90;;;;;;1883251;74;21047;-75
2021/09/28 09:03:16;;;;;;;6.15;1.90;;;16.70;99.90;;;;;;1894164;75;21062;-76
2021/09/28 09:05:43;;;;;;;4.60;2.40;;;17.30;99.90;;;;;;1890736;75;21069;-76
2021/09/28 09:08:10;;;;;;;9.10;2.47;;;17.70;99.90;;;;;;1884082;75;21075;-76
2021/09/28 09:10:36;;;;;;;8.23;1.80;;;17.60;99.90;;;;;;1887629;75;21572;-76
2021/09/28 09:13:02;;;;;;;5.47;2.33;;;17.30;99.90;;;;;;1895980;74;21215;-76
2021/09/28 09:15:28;;;;;;;8.53;4.08;;;17.20;99.90;;;;;;1889612;75;21073;-75
2021/09/28 09:17:54;;;;;;;3.98;2.12;;;16.90;99.90;;;;;;1890289;75;21078;-76
2021/09/28 09:20:21;;;;;;;3.05;1.52;;;16.90;99.90;;;;;;1892519;74;21052;-76
2021/09/28 09:22:49;;;;;;;4.75;1.62;;;16.90;99.90;;;;;;1893166;75;21073;-76
2021/09/28 09:25:14;;;;;;;8.78;1.80;;;16.70;99.90;;;;;;1884911;73;21441;-76
2021/09/28 09:27:41;;;;;;;7.70;2.40;;;16.30;99.90;;;;;;1886030;75;21559;-76
2021/09/28 09:30:08;;;;;;;4.47;1.85;;;16.50;99.90;;;;;;1891959;74;21468;-75
2021/09/28 09:32:34;;;;;;;4.95;1.80;;;16.50;99.90;;;;;;1892557;74;21140;-75
2021/09/28 09:35:00;;;;;;;5.25;1.82;;;16.60;99.90;;;;;;1894640;75;21177;-76
2021/09/28 09:37:26;;;;;;;6.33;1.80;;;16.50;99.90;;;;;;1895725;74;21281;-75
2021/09/28 09:39:55;;;;;;;4.95;2.17;;;16.60;99.90;;;;;;1890772;74;21048;-75
2021/09/28 09:42:23;;;;;;;4.70;1.77;;;16.70;99.90;;;;;;1897124;75;21126;-76
2021/09/28 09:44:49;;;;;;;2.92;1.57;;;17.60;99.90;;;;;;1887184;73;21086;-76
2021/09/28 09:47:15;;;;;;;8.08;2.10;;;18.50;99.90;;;;;;1889154;74;21086;-76
2021/09/28 09:49:41;;;;;;;5.35;1.90;;;18.80;99.90;;;;;;1890862;74;21062;-76
2021/09/28 09:52:10;;;;;;;6.70;2.25;;;18.70;99.90;;;;;;1902004;75;21082;-76
2021/09/28 09:54:36;;;;;;;6.30;2.05;;;18.90;99.90;;;;;;1890453;75;21038;-76
2021/09/28 09:57:04;;;;;;;10.32;1.82;;;19.10;99.90;;;;;;1886852;75;21510;-77
2021/09/28 09:59:30;;;;;;;2.87;1.50;;;18.60;99.90;;;;;;1883688;75;21082;-76
2021/09/28 10:01:56;;;;;;;5.42;1.60;;;18.30;99.90;;;;;;1891405;74;21168;-75
2021/09/28 10:04:22;;;;;;;3.02;1.42;;;17.80;99.90;;;;;;1891521;75;21079;-75
2021/09/28 10:06:48;;;;;;;7.90;1.40;;;17.10;99.90;;;;;;1882730;74;21077;-75
2021/09/28 10:09:15;;;;;;;3.80;1.52;;;17.30;99.90;;;;;;1843683;75;21086;-75
2021/09/28 10:11:41;;;;;;;8.50;1.70;;;17.40;99.90;;;;;;1894901;74;21094;-75
2021/09/28 10:14:07;;;;;;;5.90;1.42;;;17.40;99.90;;;;;;1886538;74;21042;-74
2021/09/28 10:16:33;;;;;;;4.55;1.50;;;17.20;99.90;;;;;;1885639;75;21199;-75
2021/09/28 10:19:01;;;;;;;2.83;1.32;;;17.50;99.90;;;;;;1873499;74;21207;-75
2021/09/28 10:21:29;;;;;;;4.08;1.37;;;18.00;99.90;;;;;;1916824;73;21127;-75
2021/09/28 10:23:55;;;;;;;2.92;1.25;;;18.80;99.90;;;;;;1916909;74;21160;-73
2021/09/28 10:26:21;;;;;;;4.90;2.77;;;19.50;99.90;;;;;;1916212;73;21153;-75
2021/09/28 10:28:47;;;;;;;2.08;1.20;;;19.80;99.90;;;;;;1917276;73;21066;-75
2021/09/28 10:31:13;;;;;;;3.42;1.55;;;20.00;99.90;;;;;;1918352;73;21073;-75
2021/09/28 10:33:39;;;;;;;4.17;1.40;;;19.50;99.90;;;;;;1853156;76;21067;-75
2021/09/28 10:36:10;;;;;;;3.10;1.77;;;19.00;99.90;;;;;;1878020;74;21096;-75
2021/09/28 10:38:36;;;;;;;8.83;1.75;;;18.40;99.90;;;;;;1847407;75;21055;-75
2021/09/28 10:41:02;;;;;;;3.75;1.30;;;18.00;99.90;;;;;;1863243;75;21151;-74
2021/09/28 10:43:28;;;;;;;2.80;1.10;;;18.10;99.90;;;;;;1855244;75;21102;-74
2021/09/28 10:45:56;;;;;;;4.62;1.75;;;18.30;99.90;;;;;;1850829;76;21543;-75
2021/09/28 10:48:22;;;;;;;7.40;6.05;;;17.90;99.90;;;;;;1858108;75;21273;-75
2021/09/28 10:50:49;;;;;;;15.28;8.53;;;17.90;99.90;;;;;;1847135;75;21108;-75
2021/09/28 10:53:15;;;;;;;1.82;1.10;;;18.30;99.90;;;;;;1847453;75;21209;-75
2021/09/28 10:55:41;;;;;;;3.00;1.60;;;18.10;99.90;;;;;;1863332;74;21149;-76
2021/09/28 10:58:12;;;;;;;2.75;1.67;;;18.00;99.90;;;;;;1860018;74;21093;-75
2021/09/28 11:00:38;;;;;;;2.45;1.20;;;18.00;99.90;;;;;;1882602;73;21047;-76
2021/09/28 11:03:04;;;;;;;3.83;1.25;;;17.70;99.90;;;;;;1865763;74;21086;-76
2021/09/28 11:05:31;;;;;;;2.55;1.52;;;17.50;99.90;;;;;;1853781;75;21081;-75
2021/09/28 11:07:57;;;;;;;2.80;1.40;;;17.80;99.90;;;;;;1897173;74;21160;-75
2021/09/28 11:10:23;;;;;;;2.98;1.65;;;17.40;99.90;;;;;;1886929;75;21047;-75
2021/09/28 11:12:49;;;;;;;4.53;1.80;;;17.50;99.90;;;;;;1906541;74;21156;-76
2021/09/28 11:15:15;;;;;;;2.42;1.20;;;17.70;99.90;;;;;;1838091;75;21077;-75
2021/09/28 11:17:42;;;;;;;4.40;1.35;;;18.40;99.90;;;;;;1860973;74;21147;-75
2021/09/28 11:20:09;;;;;;;4.22;1.27;;;18.80;99.90;;;;;;1849203;75;21181;-78
2021/09/28 11:22:35;;;;;;;4.10;1.10;;;19.30;99.90;;;;;;1868723;76;21098;-75
2021/09/28 11:25:01;;;;;;;2.15;1.10;;;20.10;99.90;;;;;;1846708;75;21151;-75
2021/09/28 11:27:29;;;;;;;6.33;1.85;;;21.00;99.90;;;;;;1869242;75;21083;-75
2021/09/28 11:29:55;;;;;;;4.05;1.42;;;21.60;99.90;;;;;;1867799;75;21233;-75
2021/09/28 11:32:21;;;;;;;3.77;1.40;;;21.70;99.90;;;;;;1876410;74;21096;-75
2021/09/28 11:34:48;;;;;;;4.08;1.30;;;21.90;99.90;;;;;;1871878;75;21317;-74
2021/09/28 11:37:14;;;;;;;2.52;1.50;;;22.30;99.90;;;;;;1854679;76;21207;-74
2021/09/28 11:39:40;;;;;;;5.20;1.55;;;22.00;99.90;;;;;;1852029;75;21165;-78
2021/09/28 11:42:06;;;;;;;3.75;1.50;;;21.40;99.90;;;;;;1902723;74;21073;-78
2021/09/28 11:44:32;;;;;;;3.72;1.20;;;20.80;99.90;;;;;;1858717;75;21169;-78
2021/09/28 11:46:58;;;;;;;6.17;1.25;;;20.60;99.90;;;;;;1859151;75;21053;-75
2021/09/28 11:49:25;;;;;;;3.20;1.57;;;20.60;99.90;;;;;;1850516;75;21086;-75
2021/09/28 11:51:52;;;;;;;5.33;1.60;;;20.40;99.90;;;;;;1902133;74;21507;-75
2021/09/28 11:54:19;;;;;;;4.92;1.50;;;20.20;99.90;;;;;;1899204;75;21172;-76
2021/09/28 11:56:45;;;;;;;1.67;1.20;;;20.30;99.90;;;;;;1895400;74;21087;-75
2021/09/28 11:59:11;;;;;;;1.77;1.17;;;20.60;99.90;;;;;;1893331;75;21095;-75
2021/09/28 12:01:38;;;;;;;15.38;1.75;;;21.00;99.90;;;;;;1897829;75;21048;-75
2021/09/28 12:04:12;;;;;;;3.25;1.47;;;21.10;99.90;;;;;;1881591;75;21094;-76
2021/09/28 12:06:47;;;;;;;3.47;1.55;;;21.80;99.90;;;;;;1901711;74;21195;-77
2021/09/28 12:09:03;;;;;;;3.50;1.45;;;22.50;99.90;;;;;;1890907;73;21548;-76
2021/09/28 12:11:33;;;;;;;1.45;1.30;;;21.60;99.90;;;;;;1850580;75;21478;-76
2021/09/28 12:13:57;;;;;;;3.50;1.30;;;21.80;99.90;;;;;;1869845;74;21119;-77
2021/09/28 12:16:23;;;;;;;3.52;1.40;;;22.40;99.90;;;;;;1845258;75;21174;-77
2021/09/28 12:18:49;;;;;;;3.10;1.40;;;22.60;99.90;;;;;;1887517;74;21160;-76
2021/09/28 12:21:16;;;;;;;3.37;1.55;;;23.60;99.90;;;;;;1850487;75;21094;-76
2021/09/28 12:23:42;;;;;;;3.12;1.20;;;23.00;99.90;;;;;;1867563;76;21083;-77
2021/09/28 12:26:08;;;;;;;2.90;1.27;;;22.80;99.90;;;;;;1851458;75;21102;-76
2021/09/28 12:28:35;;;;;;;8.43;2.15;;;22.00;99.90;;;;;;1865158;76;21052;-77
2021/09/28 12:31:02;;;;;;;2.25;1.35;;;22.00;99.90;;;;;;1871607;76;21056;-76
2021/09/28 12:33:29;;;;;;;2.37;1.40;;;22.50;99.90;;;;;;1870059;74;21130;-74
2021/09/28 12:35:55;;;;;;;3.25;1.25;;;22.50;99.90;;;;;;1868801;76;21153;-74
2021/09/28 12:38:21;;;;;;;2.10;1.50;;;22.40;99.90;;;;;;1872645;74;21078;-75
2021/09/28 12:40:47;;;;;;;3.42;1.60;;;21.10;99.90;;;;;;1853751;75;21065;-74
2021/09/28 12:43:14;;;;;;;4.83;1.50;;;21.20;99.90;;;;;;1852401;75;21092;-75
2021/09/28 12:45:40;;;;;;;8.13;1.77;;;22.10;99.90;;;;;;1864436;74;21511;-74